sensor_id;sensor_type;location;lat;lon;timestamp;P1;durP1;ratioP1;P2;durP2;ratioP2
4359;SDS011;2193;47.980;7.660;2023-04-15T00:01:58;4.33;;;2.43;;
4359;SDS011;2193;47.980;7.660;2023-04-15T00:04:24;5.37;;;2.90;;
4359;SDS011;2193;47.980;7.660;2023-04-15T00:06:52;4.30;;;2.33;;
4359;SDS011;2193;47.980;7.660;2023-04-15T00:09:17;3.40;;;1.60;;
4359;SDS011;2193;47.980;7.660;2023-04-15T00:11:43;4.87;;;2.20;;
4359;SDS011;2193;47.980;7.660;2023-04-15T00:14:09;4.67;;;2.00;;
4359;SDS011;2193;47.980;7.660;2023-04-15T00:16:34;7.67;;;1.93;;
4359;SDS011;2193;47.980;7.660;2023-04-15T00:19:00;3.10;;;2.23;;
4359;SDS011;2193;47.980;7.660;2023-04-15T00:21:25;5.70;;;2.13;;
4359;SDS011;2193;47.980;7.660;2023-04-15T00:23:51;4.17;;;2.40;;
4359;SDS011;2193;47.980;7.660;2023-04-15T00:26:17;2.53;;;1.87;;
4359;SDS011;2193;47.980;7.660;2023-04-15T00:28:43;7.57;;;2.10;;
4359;SDS011;2193;47.980;7.660;2023-04-15T00:31:09;4.60;;;2.37;;
4359;SDS011;2193;47.980;7.660;2023-04-15T00:33:34;3.40;;;2.10;;
4359;SDS011;2193;47.980;7.660;2023-04-15T00:36:00;3.70;;;2.33;;
4359;SDS011;2193;47.980;7.660;2023-04-15T00:38:26;3.63;;;2.25;;
4359;SDS011;2193;47.980;7.660;2023-04-15T00:40:52;5.83;;;2.50;;
4359;SDS011;2193;47.980;7.660;2023-04-15T00:43:17;3.47;;;2.20;;
4359;SDS011;2193;47.980;7.660;2023-04-15T00:45:42;4.37;;;2.40;;
4359;SDS011;2193;47.980;7.660;2023-04-15T00:48:07;5.43;;;2.20;;
4359;SDS011;2193;47.980;7.660;2023-04-15T00:50:33;3.33;;;2.23;;
4359;SDS011;2193;47.980;7.660;2023-04-15T00:52:58;4.70;;;2.17;;
4359;SDS011;2193;47.980;7.660;2023-04-15T00:55:23;7.47;;;2.50;;
4359;SDS011;2193;47.980;7.660;2023-04-15T00:57:49;3.43;;;2.27;;
4359;SDS011;2193;47.980;7.660;2023-04-15T01:00:15;5.90;;;2.53;;
4359;SDS011;2193;47.980;7.660;2023-04-15T01:02:40;3.90;;;2.13;;
4359;SDS011;2193;47.980;7.660;2023-04-15T01:05:06;4.50;;;2.20;;
4359;SDS011;2193;47.980;7.660;2023-04-15T01:07:31;4.90;;;2.40;;
4359;SDS011;2193;47.980;7.660;2023-04-15T01:09:56;6.23;;;2.70;;
4359;SDS011;2193;47.980;7.660;2023-04-15T01:12:22;2.80;;;2.00;;
4359;SDS011;2193;47.980;7.660;2023-04-15T01:14:48;4.40;;;2.40;;
4359;SDS011;2193;47.980;7.660;2023-04-15T01:17:13;3.13;;;2.23;;
4359;SDS011;2193;47.980;7.660;2023-04-15T01:19:39;3.93;;;2.50;;
4359;SDS011;2193;47.980;7.660;2023-04-15T01:22:04;4.57;;;2.93;;
4359;SDS011;2193;47.980;7.660;2023-04-15T01:24:30;5.70;;;2.47;;
4359;SDS011;2193;47.980;7.660;2023-04-15T01:26:56;6.38;;;2.40;;
4359;SDS011;2193;47.980;7.660;2023-04-15T01:29:21;4.47;;;2.17;;
4359;SDS011;2193;47.980;7.660;2023-04-15T01:31:50;2.63;;;2.07;;
4359;SDS011;2193;47.980;7.660;2023-04-15T01:34:16;2.83;;;2.20;;
4359;SDS011;2193;47.980;7.660;2023-04-15T01:36:41;2.20;;;2.00;;
4359;SDS011;2193;47.980;7.660;2023-04-15T01:39:06;2.07;;;1.87;;
4359;SDS011;2193;47.980;7.660;2023-04-15T01:41:32;5.27;;;2.13;;
4359;SDS011;2193;47.980;7.660;2023-04-15T01:43:57;2.67;;;1.80;;
4359;SDS011;2193;47.980;7.660;2023-04-15T01:46:22;4.47;;;2.57;;
4359;SDS011;2193;47.980;7.660;2023-04-15T01:48:47;4.20;;;1.93;;
4359;SDS011;2193;47.980;7.660;2023-04-15T01:51:13;7.73;;;3.03;;
4359;SDS011;2193;47.980;7.660;2023-04-15T01:53:38;3.87;;;2.00;;
4359;SDS011;2193;47.980;7.660;2023-04-15T01:56:03;4.47;;;1.77;;
4359;SDS011;2193;47.980;7.660;2023-04-15T01:58:29;4.50;;;1.90;;
4359;SDS011;2193;47.980;7.660;2023-04-15T02:00:54;2.67;;;2.00;;
4359;SDS011;2193;47.980;7.660;2023-04-15T02:03:19;2.50;;;2.00;;
4359;SDS011;2193;47.980;7.660;2023-04-15T02:05:44;5.10;;;2.20;;
4359;SDS011;2193;47.980;7.660;2023-04-15T02:08:10;2.70;;;1.97;;
4359;SDS011;2193;47.980;7.660;2023-04-15T02:10:35;8.37;;;2.63;;
4359;SDS011;2193;47.980;7.660;2023-04-15T02:13:00;3.70;;;2.20;;
4359;SDS011;2193;47.980;7.660;2023-04-15T02:15:25;4.03;;;1.90;;
4359;SDS011;2193;47.980;7.660;2023-04-15T02:17:51;5.03;;;2.03;;
4359;SDS011;2193;47.980;7.660;2023-04-15T02:20:19;3.50;;;1.70;;
4359;SDS011;2193;47.980;7.660;2023-04-15T02:22:45;2.42;;;1.88;;
4359;SDS011;2193;47.980;7.660;2023-04-15T02:25:11;9.80;;;2.07;;
4359;SDS011;2193;47.980;7.660;2023-04-15T02:27:36;4.00;;;2.20;;
4359;SDS011;2193;47.980;7.660;2023-04-15T02:30:01;3.20;;;1.90;;
4359;SDS011;2193;47.980;7.660;2023-04-15T02:32:27;2.50;;;1.87;;
4359;SDS011;2193;47.980;7.660;2023-04-15T02:34:53;3.67;;;1.80;;
4359;SDS011;2193;47.980;7.660;2023-04-15T02:37:18;5.63;;;1.97;;
4359;SDS011;2193;47.980;7.660;2023-04-15T02:39:44;2.53;;;1.50;;
4359;SDS011;2193;47.980;7.660;2023-04-15T02:42:09;3.07;;;1.80;;
4359;SDS011;2193;47.980;7.660;2023-04-15T02:44:35;5.00;;;2.10;;
4359;SDS011;2193;47.980;7.660;2023-04-15T02:47:00;2.90;;;1.90;;
4359;SDS011;2193;47.980;7.660;2023-04-15T02:49:26;4.30;;;2.00;;
4359;SDS011;2193;47.980;7.660;2023-04-15T02:51:53;8.68;;;2.10;;
4359;SDS011;2193;47.980;7.660;2023-04-15T02:54:19;5.03;;;1.97;;
4359;SDS011;2193;47.980;7.660;2023-04-15T02:56:45;3.07;;;1.80;;
4359;SDS011;2193;47.980;7.660;2023-04-15T02:59:10;3.90;;;1.90;;
4359;SDS011;2193;47.980;7.660;2023-04-15T03:01:36;3.67;;;1.90;;
4359;SDS011;2193;47.980;7.660;2023-04-15T03:04:01;4.93;;;2.20;;
4359;SDS011;2193;47.980;7.660;2023-04-15T03:06:26;4.77;;;1.57;;
4359;SDS011;2193;47.980;7.660;2023-04-15T03:08:51;2.20;;;1.80;;
4359;SDS011;2193;47.980;7.660;2023-04-15T03:11:18;2.83;;;1.60;;
4359;SDS011;2193;47.980;7.660;2023-04-15T03:13:43;3.15;;;1.85;;
4359;SDS011;2193;47.980;7.660;2023-04-15T03:16:08;4.50;;;1.80;;
4359;SDS011;2193;47.980;7.660;2023-04-15T03:18:33;2.60;;;1.73;;
4359;SDS011;2193;47.980;7.660;2023-04-15T03:20:59;4.00;;;1.67;;
4359;SDS011;2193;47.980;7.660;2023-04-15T03:23:24;1.70;;;1.60;;
4359;SDS011;2193;47.980;7.660;2023-04-15T03:25:50;7.57;;;1.60;;
4359;SDS011;2193;47.980;7.660;2023-04-15T03:28:15;2.63;;;1.67;;
4359;SDS011;2193;47.980;7.660;2023-04-15T03:30:40;4.13;;;1.83;;
4359;SDS011;2193;47.980;7.660;2023-04-15T03:33:06;3.30;;;1.60;;
4359;SDS011;2193;47.980;7.660;2023-04-15T03:35:31;2.10;;;1.60;;
4359;SDS011;2193;47.980;7.660;2023-04-15T03:37:56;3.83;;;1.97;;
4359;SDS011;2193;47.980;7.660;2023-04-15T03:40:21;4.30;;;1.77;;
4359;SDS011;2193;47.980;7.660;2023-04-15T03:42:47;4.17;;;2.00;;
4359;SDS011;2193;47.980;7.660;2023-04-15T03:45:12;2.20;;;1.67;;
4359;SDS011;2193;47.980;7.660;2023-04-15T03:47:37;4.70;;;2.30;;
4359;SDS011;2193;47.980;7.660;2023-04-15T03:50:02;5.40;;;2.00;;
4359;SDS011;2193;47.980;7.660;2023-04-15T03:52:27;4.77;;;1.77;;
4359;SDS011;2193;47.980;7.660;2023-04-15T03:54:52;2.23;;;1.60;;
4359;SDS011;2193;47.980;7.660;2023-04-15T03:57:18;3.53;;;1.73;;
4359;SDS011;2193;47.980;7.660;2023-04-15T03:59:43;2.93;;;1.67;;
4359;SDS011;2193;47.980;7.660;2023-04-15T04:02:08;3.20;;;1.77;;
4359;SDS011;2193;47.980;7.660;2023-04-15T04:04:33;3.17;;;1.70;;
4359;SDS011;2193;47.980;7.660;2023-04-15T04:06:58;4.67;;;1.93;;
4359;SDS011;2193;47.980;7.660;2023-04-15T04:09:24;3.70;;;1.60;;
4359;SDS011;2193;47.980;7.660;2023-04-15T04:11:49;2.90;;;1.77;;
4359;SDS011;2193;47.980;7.660;2023-04-15T04:14:15;7.30;;;2.80;;
4359;SDS011;2193;47.980;7.660;2023-04-15T04:16:40;5.33;;;1.73;;
4359;SDS011;2193;47.980;7.660;2023-04-15T04:19:06;3.70;;;2.00;;
4359;SDS011;2193;47.980;7.660;2023-04-15T04:21:31;3.20;;;1.60;;
4359;SDS011;2193;47.980;7.660;2023-04-15T04:23:58;5.83;;;1.67;;
4359;SDS011;2193;47.980;7.660;2023-04-15T04:26:23;2.90;;;1.60;;
4359;SDS011;2193;47.980;7.660;2023-04-15T04:28:48;4.73;;;2.07;;
4359;SDS011;2193;47.980;7.660;2023-04-15T04:31:13;4.23;;;1.70;;
4359;SDS011;2193;47.980;7.660;2023-04-15T04:33:38;2.37;;;1.77;;
4359;SDS011;2193;47.980;7.660;2023-04-15T04:36:04;3.50;;;1.33;;
4359;SDS011;2193;47.980;7.660;2023-04-15T04:38:29;4.60;;;1.90;;
4359;SDS011;2193;47.980;7.660;2023-04-15T04:40:55;4.63;;;1.60;;
4359;SDS011;2193;47.980;7.660;2023-04-15T04:43:20;2.83;;;1.50;;
4359;SDS011;2193;47.980;7.660;2023-04-15T04:45:45;2.47;;;1.80;;
4359;SDS011;2193;47.980;7.660;2023-04-15T04:48:11;3.13;;;1.70;;
4359;SDS011;2193;47.980;7.660;2023-04-15T04:50:36;5.93;;;2.00;;
4359;SDS011;2193;47.980;7.660;2023-04-15T04:53:01;5.50;;;3.10;;
4359;SDS011;2193;47.980;7.660;2023-04-15T04:55:27;6.63;;;3.20;;
4359;SDS011;2193;47.980;7.660;2023-04-15T04:57:52;4.83;;;3.00;;
4359;SDS011;2193;47.980;7.660;2023-04-15T05:00:17;7.40;;;2.90;;
4359;SDS011;2193;47.980;7.660;2023-04-15T05:02:43;5.50;;;2.90;;
4359;SDS011;2193;47.980;7.660;2023-04-15T05:05:08;1.93;;;1.70;;
4359;SDS011;2193;47.980;7.660;2023-04-15T05:07:34;2.77;;;1.70;;
4359;SDS011;2193;47.980;7.660;2023-04-15T05:09:59;3.10;;;1.80;;
4359;SDS011;2193;47.980;7.660;2023-04-15T05:12:25;7.20;;;2.00;;
4359;SDS011;2193;47.980;7.660;2023-04-15T05:14:50;8.20;;;3.27;;
4359;SDS011;2193;47.980;7.660;2023-04-15T05:17:15;5.43;;;2.87;;
4359;SDS011;2193;47.980;7.660;2023-04-15T05:19:40;7.27;;;3.60;;
4359;SDS011;2193;47.980;7.660;2023-04-15T05:22:06;7.07;;;4.20;;
4359;SDS011;2193;47.980;7.660;2023-04-15T05:24:31;6.53;;;3.40;;
4359;SDS011;2193;47.980;7.660;2023-04-15T05:26:56;6.37;;;3.73;;
4359;SDS011;2193;47.980;7.660;2023-04-15T05:29:22;5.57;;;2.90;;
4359;SDS011;2193;47.980;7.660;2023-04-15T05:31:47;5.03;;;2.50;;
4359;SDS011;2193;47.980;7.660;2023-04-15T05:34:12;4.03;;;2.10;;
4359;SDS011;2193;47.980;7.660;2023-04-15T05:36:39;7.13;;;2.33;;
4359;SDS011;2193;47.980;7.660;2023-04-15T05:39:05;3.97;;;2.60;;
4359;SDS011;2193;47.980;7.660;2023-04-15T05:41:31;2.88;;;2.40;;
4359;SDS011;2193;47.980;7.660;2023-04-15T05:43:56;5.07;;;2.13;;
4359;SDS011;2193;47.980;7.660;2023-04-15T05:46:21;8.77;;;1.90;;
4359;SDS011;2193;47.980;7.660;2023-04-15T05:48:46;3.10;;;2.40;;
4359;SDS011;2193;47.980;7.660;2023-04-15T05:51:12;6.67;;;2.37;;
4359;SDS011;2193;47.980;7.660;2023-04-15T05:53:37;5.20;;;2.70;;
4359;SDS011;2193;47.980;7.660;2023-04-15T05:56:02;5.60;;;2.90;;
4359;SDS011;2193;47.980;7.660;2023-04-15T05:58:28;9.37;;;3.77;;
4359;SDS011;2193;47.980;7.660;2023-04-15T06:00:53;4.60;;;2.37;;
4359;SDS011;2193;47.980;7.660;2023-04-15T06:03:18;6.07;;;2.83;;
4359;SDS011;2193;47.980;7.660;2023-04-15T06:05:44;4.73;;;3.10;;
4359;SDS011;2193;47.980;7.660;2023-04-15T06:08:09;5.80;;;2.57;;
4359;SDS011;2193;47.980;7.660;2023-04-15T06:10:35;6.30;;;2.70;;
4359;SDS011;2193;47.980;7.660;2023-04-15T06:13:04;5.03;;;2.50;;
4359;SDS011;2193;47.980;7.660;2023-04-15T06:15:29;3.38;;;2.10;;
4359;SDS011;2193;47.980;7.660;2023-04-15T06:17:54;2.63;;;2.30;;
4359;SDS011;2193;47.980;7.660;2023-04-15T06:20:19;4.33;;;2.87;;
4359;SDS011;2193;47.980;7.660;2023-04-15T06:22:45;4.40;;;2.73;;
4359;SDS011;2193;47.980;7.660;2023-04-15T06:25:10;4.40;;;2.60;;
4359;SDS011;2193;47.980;7.660;2023-04-15T06:27:36;5.63;;;3.20;;
4359;SDS011;2193;47.980;7.660;2023-04-15T06:30:01;5.03;;;2.97;;
4359;SDS011;2193;47.980;7.660;2023-04-15T06:32:26;5.50;;;2.80;;
4359;SDS011;2193;47.980;7.660;2023-04-15T06:34:52;5.70;;;3.10;;
4359;SDS011;2193;47.980;7.660;2023-04-15T06:37:17;5.10;;;3.30;;
4359;SDS011;2193;47.980;7.660;2023-04-15T06:39:42;7.80;;;3.33;;
4359;SDS011;2193;47.980;7.660;2023-04-15T06:42:08;5.23;;;2.97;;
4359;SDS011;2193;47.980;7.660;2023-04-15T06:44:34;5.10;;;2.90;;
4359;SDS011;2193;47.980;7.660;2023-04-15T06:46:59;7.60;;;2.97;;
4359;SDS011;2193;47.980;7.660;2023-04-15T06:49:25;6.47;;;3.07;;
4359;SDS011;2193;47.980;7.660;2023-04-15T06:51:50;5.40;;;3.03;;
4359;SDS011;2193;47.980;7.660;2023-04-15T06:54:16;15.57;;;3.33;;
4359;SDS011;2193;47.980;7.660;2023-04-15T06:56:42;4.90;;;2.87;;
4359;SDS011;2193;47.980;7.660;2023-04-15T06:59:07;5.30;;;2.77;;
4359;SDS011;2193;47.980;7.660;2023-04-15T07:01:32;6.60;;;3.07;;
4359;SDS011;2193;47.980;7.660;2023-04-15T07:03:58;5.20;;;2.77;;
4359;SDS011;2193;47.980;7.660;2023-04-15T07:06:23;6.87;;;2.73;;
4359;SDS011;2193;47.980;7.660;2023-04-15T07:08:48;6.43;;;2.80;;
4359;SDS011;2193;47.980;7.660;2023-04-15T07:11:13;7.00;;;2.83;;
4359;SDS011;2193;47.980;7.660;2023-04-15T07:13:39;9.13;;;2.87;;
4359;SDS011;2193;47.980;7.660;2023-04-15T07:16:04;5.03;;;2.93;;
4359;SDS011;2193;47.980;7.660;2023-04-15T07:18:29;7.33;;;3.33;;
4359;SDS011;2193;47.980;7.660;2023-04-15T07:20:54;4.73;;;2.70;;
4359;SDS011;2193;47.980;7.660;2023-04-15T07:23:20;4.20;;;3.00;;
4359;SDS011;2193;47.980;7.660;2023-04-15T07:25:45;5.43;;;2.90;;
4359;SDS011;2193;47.980;7.660;2023-04-15T07:28:11;3.53;;;2.70;;
4359;SDS011;2193;47.980;7.660;2023-04-15T07:30:36;4.87;;;2.77;;
4359;SDS011;2193;47.980;7.660;2023-04-15T07:33:01;4.60;;;3.03;;
4359;SDS011;2193;47.980;7.660;2023-04-15T07:35:27;3.60;;;2.33;;
4359;SDS011;2193;47.980;7.660;2023-04-15T07:37:53;6.40;;;2.80;;
4359;SDS011;2193;47.980;7.660;2023-04-15T07:40:18;9.73;;;3.37;;
4359;SDS011;2193;47.980;7.660;2023-04-15T07:42:44;5.33;;;3.10;;
4359;SDS011;2193;47.980;7.660;2023-04-15T07:45:10;4.70;;;2.90;;
4359;SDS011;2193;47.980;7.660;2023-04-15T07:47:35;11.37;;;4.10;;
4359;SDS011;2193;47.980;7.660;2023-04-15T07:50:01;6.57;;;2.90;;
4359;SDS011;2193;47.980;7.660;2023-04-15T07:52:26;7.77;;;2.80;;
4359;SDS011;2193;47.980;7.660;2023-04-15T07:54:51;10.23;;;3.93;;
4359;SDS011;2193;47.980;7.660;2023-04-15T07:57:16;4.90;;;2.60;;
4359;SDS011;2193;47.980;7.660;2023-04-15T07:59:42;10.53;;;3.47;;
4359;SDS011;2193;47.980;7.660;2023-04-15T08:02:07;4.03;;;3.03;;
4359;SDS011;2193;47.980;7.660;2023-04-15T08:04:33;7.90;;;3.37;;
4359;SDS011;2193;47.980;7.660;2023-04-15T08:06:58;8.07;;;3.20;;
4359;SDS011;2193;47.980;7.660;2023-04-15T08:09:24;5.60;;;3.07;;
4359;SDS011;2193;47.980;7.660;2023-04-15T08:11:49;6.77;;;2.80;;
4359;SDS011;2193;47.980;7.660;2023-04-15T08:14:17;6.40;;;3.00;;
4359;SDS011;2193;47.980;7.660;2023-04-15T08:16:42;6.90;;;2.70;;
4359;SDS011;2193;47.980;7.660;2023-04-15T08:19:08;6.03;;;2.47;;
4359;SDS011;2193;47.980;7.660;2023-04-15T08:21:33;4.60;;;2.87;;
4359;SDS011;2193;47.980;7.660;2023-04-15T08:23:58;3.80;;;2.37;;
4359;SDS011;2193;47.980;7.660;2023-04-15T08:26:24;6.60;;;3.40;;
4359;SDS011;2193;47.980;7.660;2023-04-15T08:28:49;2.80;;;2.50;;
4359;SDS011;2193;47.980;7.660;2023-04-15T08:31:15;7.07;;;3.13;;
4359;SDS011;2193;47.980;7.660;2023-04-15T08:33:41;6.23;;;2.80;;
4359;SDS011;2193;47.980;7.660;2023-04-15T08:36:06;7.33;;;2.83;;
4359;SDS011;2193;47.980;7.660;2023-04-15T08:38:32;6.57;;;3.00;;
4359;SDS011;2193;47.980;7.660;2023-04-15T08:40:57;8.83;;;4.20;;
4359;SDS011;2193;47.980;7.660;2023-04-15T08:43:26;3.97;;;2.93;;
4359;SDS011;2193;47.980;7.660;2023-04-15T08:45:52;5.07;;;2.30;;
4359;SDS011;2193;47.980;7.660;2023-04-15T08:48:18;4.70;;;3.10;;
4359;SDS011;2193;47.980;7.660;2023-04-15T08:50:44;5.20;;;2.80;;
4359;SDS011;2193;47.980;7.660;2023-04-15T08:53:10;5.60;;;3.10;;
4359;SDS011;2193;47.980;7.660;2023-04-15T08:55:35;4.87;;;3.23;;
4359;SDS011;2193;47.980;7.660;2023-04-15T08:58:03;6.47;;;3.07;;
4359;SDS011;2193;47.980;7.660;2023-04-15T09:00:29;5.50;;;2.90;;
4359;SDS011;2193;47.980;7.660;2023-04-15T09:02:55;6.47;;;3.13;;
4359;SDS011;2193;47.980;7.660;2023-04-15T09:05:20;7.17;;;2.60;;
4359;SDS011;2193;47.980;7.660;2023-04-15T09:07:47;3.90;;;2.67;;
4359;SDS011;2193;47.980;7.660;2023-04-15T09:10:12;4.90;;;2.60;;
4359;SDS011;2193;47.980;7.660;2023-04-15T09:12:37;3.80;;;2.57;;
4359;SDS011;2193;47.980;7.660;2023-04-15T09:15:03;9.03;;;3.50;;
4359;SDS011;2193;47.980;7.660;2023-04-15T09:17:28;6.10;;;2.50;;
4359;SDS011;2193;47.980;7.660;2023-04-15T09:20:06;4.63;;;2.77;;
4359;SDS011;2193;47.980;7.660;2023-04-15T09:22:31;5.90;;;3.07;;
4359;SDS011;2193;47.980;7.660;2023-04-15T09:24:57;8.80;;;3.10;;
4359;SDS011;2193;47.980;7.660;2023-04-15T09:27:22;5.57;;;3.40;;
4359;SDS011;2193;47.980;7.660;2023-04-15T09:29:49;6.23;;;3.13;;
4359;SDS011;2193;47.980;7.660;2023-04-15T09:32:14;5.17;;;3.57;;
4359;SDS011;2193;47.980;7.660;2023-04-15T09:34:41;4.80;;;3.17;;
4359;SDS011;2193;47.980;7.660;2023-04-15T09:37:07;5.60;;;3.10;;
4359;SDS011;2193;47.980;7.660;2023-04-15T09:39:44;5.80;;;3.17;;
4359;SDS011;2193;47.980;7.660;2023-04-15T09:42:09;9.03;;;3.47;;
4359;SDS011;2193;47.980;7.660;2023-04-15T09:44:35;7.20;;;3.80;;
4359;SDS011;2193;47.980;7.660;2023-04-15T09:47:01;6.87;;;2.87;;
4359;SDS011;2193;47.980;7.660;2023-04-15T09:49:26;5.60;;;3.50;;
4359;SDS011;2193;47.980;7.660;2023-04-15T09:51:56;5.20;;;3.20;;
4359;SDS011;2193;47.980;7.660;2023-04-15T09:54:22;4.77;;;3.17;;
4359;SDS011;2193;47.980;7.660;2023-04-15T09:56:47;6.60;;;3.17;;
4359;SDS011;2193;47.980;7.660;2023-04-15T09:59:12;8.37;;;2.83;;
4359;SDS011;2193;47.980;7.660;2023-04-15T10:01:38;6.97;;;2.87;;
4359;SDS011;2193;47.980;7.660;2023-04-15T10:04:05;6.47;;;3.20;;
4359;SDS011;2193;47.980;7.660;2023-04-15T10:06:30;6.33;;;2.60;;
4359;SDS011;2193;47.980;7.660;2023-04-15T10:08:56;6.27;;;3.03;;
4359;SDS011;2193;47.980;7.660;2023-04-15T10:11:21;5.43;;;2.80;;
4359;SDS011;2193;47.980;7.660;2023-04-15T10:13:48;5.50;;;2.90;;
4359;SDS011;2193;47.980;7.660;2023-04-15T10:16:14;5.10;;;3.03;;
4359;SDS011;2193;47.980;7.660;2023-04-15T10:18:42;6.97;;;3.47;;
4359;SDS011;2193;47.980;7.660;2023-04-15T10:21:07;7.53;;;3.60;;
4359;SDS011;2193;47.980;7.660;2023-04-15T10:23:33;7.27;;;3.40;;
4359;SDS011;2193;47.980;7.660;2023-04-15T10:25:58;9.07;;;3.30;;
4359;SDS011;2193;47.980;7.660;2023-04-15T10:28:24;7.30;;;3.80;;
4359;SDS011;2193;47.980;7.660;2023-04-15T10:30:50;10.33;;;3.67;;
4359;SDS011;2193;47.980;7.660;2023-04-15T10:33:17;10.83;;;3.57;;
4359;SDS011;2193;47.980;7.660;2023-04-15T10:35:44;8.57;;;3.43;;
4359;SDS011;2193;47.980;7.660;2023-04-15T10:38:30;7.80;;;3.67;;
4359;SDS011;2193;47.980;7.660;2023-04-15T10:41:10;4.17;;;2.97;;
4359;SDS011;2193;47.980;7.660;2023-04-15T10:43:36;5.70;;;3.23;;
4359;SDS011;2193;47.980;7.660;2023-04-15T10:46:03;6.20;;;3.20;;
4359;SDS011;2193;47.980;7.660;2023-04-15T10:48:28;6.73;;;3.03;;
4359;SDS011;2193;47.980;7.660;2023-04-15T10:50:55;7.53;;;3.07;;
4359;SDS011;2193;47.980;7.660;2023-04-15T10:53:29;3.70;;;2.73;;
4359;SDS011;2193;47.980;7.660;2023-04-15T10:55:56;7.70;;;3.03;;
4359;SDS011;2193;47.980;7.660;2023-04-15T10:58:24;3.10;;;2.73;;
4359;SDS011;2193;47.980;7.660;2023-04-15T11:00:50;4.40;;;2.57;;
4359;SDS011;2193;47.980;7.660;2023-04-15T11:03:33;10.53;;;2.80;;
4359;SDS011;2193;47.980;7.660;2023-04-15T11:06:00;5.60;;;2.93;;
4359;SDS011;2193;47.980;7.660;2023-04-15T11:11:09;5.10;;;2.63;;
4359;SDS011;2193;47.980;7.660;2023-04-15T11:13:34;5.37;;;3.10;;
4359;SDS011;2193;47.980;7.660;2023-04-15T11:16:00;6.20;;;2.90;;
4359;SDS011;2193;47.980;7.660;2023-04-15T11:18:27;7.73;;;2.90;;
4359;SDS011;2193;47.980;7.660;2023-04-15T11:20:54;5.37;;;3.00;;
4359;SDS011;2193;47.980;7.660;2023-04-15T11:23:41;5.47;;;2.50;;
4359;SDS011;2193;47.980;7.660;2023-04-15T11:26:13;3.17;;;2.30;;
4359;SDS011;2193;47.980;7.660;2023-04-15T11:28:40;2.80;;;2.17;;
4359;SDS011;2193;47.980;7.660;2023-04-15T11:31:16;3.57;;;2.23;;
4359;SDS011;2193;47.980;7.660;2023-04-15T11:33:59;4.93;;;2.73;;
4359;SDS011;2193;47.980;7.660;2023-04-15T11:36:27;3.73;;;2.60;;
4359;SDS011;2193;47.980;7.660;2023-04-15T11:38:52;4.20;;;3.20;;
4359;SDS011;2193;47.980;7.660;2023-04-15T11:41:21;3.27;;;2.77;;
4359;SDS011;2193;47.980;7.660;2023-04-15T11:43:46;5.23;;;2.70;;
4359;SDS011;2193;47.980;7.660;2023-04-15T11:46:11;6.77;;;2.87;;
4359;SDS011;2193;47.980;7.660;2023-04-15T11:48:40;3.50;;;2.40;;
4359;SDS011;2193;47.980;7.660;2023-04-15T11:51:06;4.37;;;2.37;;
4359;SDS011;2193;47.980;7.660;2023-04-15T11:53:47;4.77;;;3.07;;
4359;SDS011;2193;47.980;7.660;2023-04-15T11:56:22;5.67;;;2.93;;
4359;SDS011;2193;47.980;7.660;2023-04-15T11:58:51;6.20;;;2.90;;
4359;SDS011;2193;47.980;7.660;2023-04-15T12:01:16;7.03;;;2.87;;
4359;SDS011;2193;47.980;7.660;2023-04-15T12:03:43;4.83;;;2.60;;
4359;SDS011;2193;47.980;7.660;2023-04-15T12:14:05;4.17;;;2.50;;
4359;SDS011;2193;47.980;7.660;2023-04-15T12:16:32;6.40;;;3.07;;
4359;SDS011;2193;47.980;7.660;2023-04-15T12:18:58;4.20;;;3.07;;
4359;SDS011;2193;47.980;7.660;2023-04-15T12:21:24;3.10;;;2.67;;
4359;SDS011;2193;47.980;7.660;2023-04-15T12:26:15;6.20;;;2.40;;
4359;SDS011;2193;47.980;7.660;2023-04-15T12:28:41;4.57;;;2.60;;
4359;SDS011;2193;47.980;7.660;2023-04-15T12:31:06;4.33;;;2.30;;
4359;SDS011;2193;47.980;7.660;2023-04-15T12:33:33;3.27;;;2.50;;
4359;SDS011;2193;47.980;7.660;2023-04-15T12:35:58;2.60;;;2.20;;
4359;SDS011;2193;47.980;7.660;2023-04-15T12:38:23;2.90;;;2.30;;
4359;SDS011;2193;47.980;7.660;2023-04-15T12:40:48;5.03;;;2.60;;
4359;SDS011;2193;47.980;7.660;2023-04-15T12:43:14;4.20;;;2.50;;
4359;SDS011;2193;47.980;7.660;2023-04-15T12:45:39;9.27;;;2.57;;
4359;SDS011;2193;47.980;7.660;2023-04-15T12:48:05;4.90;;;2.40;;
4359;SDS011;2193;47.980;7.660;2023-04-15T12:50:32;9.30;;;2.63;;
4359;SDS011;2193;47.980;7.660;2023-04-15T12:52:57;3.83;;;2.47;;
4359;SDS011;2193;47.980;7.660;2023-04-15T12:55:22;4.43;;;2.40;;
4359;SDS011;2193;47.980;7.660;2023-04-15T12:57:48;4.03;;;2.20;;
4359;SDS011;2193;47.980;7.660;2023-04-15T13:00:13;3.20;;;2.23;;
4359;SDS011;2193;47.980;7.660;2023-04-15T13:02:38;4.40;;;2.10;;
4359;SDS011;2193;47.980;7.660;2023-04-15T13:05:04;3.53;;;2.00;;
4359;SDS011;2193;47.980;7.660;2023-04-15T13:07:29;3.50;;;2.20;;
4359;SDS011;2193;47.980;7.660;2023-04-15T13:09:54;4.87;;;2.40;;
4359;SDS011;2193;47.980;7.660;2023-04-15T13:12:20;4.60;;;2.53;;
4359;SDS011;2193;47.980;7.660;2023-04-15T13:14:46;3.90;;;2.40;;
4359;SDS011;2193;47.980;7.660;2023-04-15T13:17:11;5.23;;;2.67;;
4359;SDS011;2193;47.980;7.660;2023-04-15T13:19:37;3.20;;;2.00;;
4359;SDS011;2193;47.980;7.660;2023-04-15T13:22:02;4.33;;;1.93;;
4359;SDS011;2193;47.980;7.660;2023-04-15T13:24:28;6.90;;;2.30;;
4359;SDS011;2193;47.980;7.660;2023-04-15T13:26:53;6.97;;;2.37;;
4359;SDS011;2193;47.980;7.660;2023-04-15T13:29:18;3.50;;;2.00;;
4359;SDS011;2193;47.980;7.660;2023-04-15T13:31:44;6.47;;;2.60;;
4359;SDS011;2193;47.980;7.660;2023-04-15T13:34:09;5.03;;;2.53;;
4359;SDS011;2193;47.980;7.660;2023-04-15T13:36:35;3.50;;;2.23;;
4359;SDS011;2193;47.980;7.660;2023-04-15T13:39:00;3.10;;;2.20;;
4359;SDS011;2193;47.980;7.660;2023-04-15T13:41:25;5.13;;;2.27;;
4359;SDS011;2193;47.980;7.660;2023-04-15T13:43:50;8.37;;;2.60;;
4359;SDS011;2193;47.980;7.660;2023-04-15T13:46:16;5.70;;;2.00;;
4359;SDS011;2193;47.980;7.660;2023-04-15T13:48:41;3.30;;;2.37;;
4359;SDS011;2193;47.980;7.660;2023-04-15T13:51:06;6.60;;;2.50;;
4359;SDS011;2193;47.980;7.660;2023-04-15T13:53:31;5.40;;;2.70;;
4359;SDS011;2193;47.980;7.660;2023-04-15T13:55:57;3.93;;;2.27;;
4359;SDS011;2193;47.980;7.660;2023-04-15T13:58:22;4.77;;;2.40;;
4359;SDS011;2193;47.980;7.660;2023-04-15T14:00:47;5.00;;;2.70;;
4359;SDS011;2193;47.980;7.660;2023-04-15T14:03:12;5.40;;;2.60;;
4359;SDS011;2193;47.980;7.660;2023-04-15T14:05:37;5.63;;;2.40;;
4359;SDS011;2193;47.980;7.660;2023-04-15T14:08:03;2.73;;;2.00;;
4359;SDS011;2193;47.980;7.660;2023-04-15T14:10:28;3.53;;;2.10;;
4359;SDS011;2193;47.980;7.660;2023-04-15T14:12:53;8.03;;;1.90;;
4359;SDS011;2193;47.980;7.660;2023-04-15T14:15:18;2.73;;;1.90;;
4359;SDS011;2193;47.980;7.660;2023-04-15T14:17:45;4.77;;;2.00;;
4359;SDS011;2193;47.980;7.660;2023-04-15T14:20:10;3.30;;;1.90;;
4359;SDS011;2193;47.980;7.660;2023-04-15T14:22:35;4.97;;;2.00;;
4359;SDS011;2193;47.980;7.660;2023-04-15T14:25:00;5.87;;;2.40;;
4359;SDS011;2193;47.980;7.660;2023-04-15T14:27:25;3.77;;;1.90;;
4359;SDS011;2193;47.980;7.660;2023-04-15T14:29:51;2.80;;;1.53;;
4359;SDS011;2193;47.980;7.660;2023-04-15T14:32:18;5.03;;;2.07;;
4359;SDS011;2193;47.980;7.660;2023-04-15T14:34:43;3.97;;;2.23;;
4359;SDS011;2193;47.980;7.660;2023-04-15T14:37:08;3.60;;;1.60;;
4359;SDS011;2193;47.980;7.660;2023-04-15T14:39:33;7.40;;;2.20;;
4359;SDS011;2193;47.980;7.660;2023-04-15T14:41:58;5.50;;;2.00;;
4359;SDS011;2193;47.980;7.660;2023-04-15T14:44:24;5.10;;;2.23;;
4359;SDS011;2193;47.980;7.660;2023-04-15T14:46:49;3.20;;;1.73;;
4359;SDS011;2193;47.980;7.660;2023-04-15T14:49:15;3.43;;;2.03;;
4359;SDS011;2193;47.980;7.660;2023-04-15T14:51:40;4.07;;;1.53;;
4359;SDS011;2193;47.980;7.660;2023-04-15T14:54:05;5.70;;;2.20;;
4359;SDS011;2193;47.980;7.660;2023-04-15T14:56:30;4.07;;;2.10;;
4359;SDS011;2193;47.980;7.660;2023-04-15T14:58:55;3.00;;;2.10;;
4359;SDS011;2193;47.980;7.660;2023-04-15T15:01:21;5.37;;;2.10;;
4359;SDS011;2193;47.980;7.660;2023-04-15T15:03:46;4.10;;;2.17;;
4359;SDS011;2193;47.980;7.660;2023-04-15T15:06:12;4.50;;;2.37;;
4359;SDS011;2193;47.980;7.660;2023-04-15T15:08:37;4.60;;;2.00;;
4359;SDS011;2193;47.980;7.660;2023-04-15T15:11:02;4.17;;;2.20;;
4359;SDS011;2193;47.980;7.660;2023-04-15T15:13:27;3.73;;;1.90;;
4359;SDS011;2193;47.980;7.660;2023-04-15T15:15:53;3.53;;;2.10;;
4359;SDS011;2193;47.980;7.660;2023-04-15T15:18:18;4.30;;;2.30;;
4359;SDS011;2193;47.980;7.660;2023-04-15T15:20:43;3.20;;;2.00;;